sensor_id;sensor_type;location;lat;lon;timestamp;temperature;humidity
34829;DHT22;21042;47.620;12.188;2023-03-14T00:01:14;12.80;99.90
34829;DHT22;21042;47.620;12.188;2023-03-14T00:03:41;12.60;99.90
34829;DHT22;21042;47.620;12.188;2023-03-14T00:06:09;12.60;99.90
34829;DHT22;21042;47.620;12.188;2023-03-14T00:08:36;12.40;99.90
34829;DHT22;21042;47.620;12.188;2023-03-14T00:11:14;12.30;99.90
34829;DHT22;21042;47.620;12.188;2023-03-14T00:13:41;12.30;99.90
34829;DHT22;21042;47.620;12.188;2023-03-14T00:16:10;12.20;99.90
34829;DHT22;21042;47.620;12.188;2023-03-14T00:18:38;12.00;99.90
34829;DHT22;21042;47.620;12.188;2023-03-14T00:21:07;11.90;99.90
34829;DHT22;21042;47.620;12.188;2023-03-14T00:23:36;11.90;99.90
34829;DHT22;21042;47.620;12.188;2023-03-14T00:26:05;11.90;99.90
34829;DHT22;21042;47.620;12.188;2023-03-14T00:28:33;11.80;99.90
34829;DHT22;21042;47.620;12.188;2023-03-14T00:31:05;11.90;99.90
34829;DHT22;21042;47.620;12.188;2023-03-14T00:33:33;12.00;99.90
34829;DHT22;21042;47.620;12.188;2023-03-14T00:36:08;12.00;99.90
34829;DHT22;21042;47.620;12.188;2023-03-14T00:38:37;11.90;99.90
34829;DHT22;21042;47.620;12.188;2023-03-14T00:41:06;11.80;99.90
34829;DHT22;21042;47.620;12.188;2023-03-14T00:43:33;11.70;99.90
34829;DHT22;21042;47.620;12.188;2023-03-14T00:46:00;11.70;99.90
34829;DHT22;21042;47.620;12.188;2023-03-14T00:48:27;11.70;99.90
34829;DHT22;21042;47.620;12.188;2023-03-14T00:50:54;11.60;99.90
34829;DHT22;21042;47.620;12.188;2023-03-14T00:53:21;11.40;99.90
34829;DHT22;21042;47.620;12.188;2023-03-14T00:55:48;11.30;99.90
34829;DHT22;21042;47.620;12.188;2023-03-14T00:58:16;11.20;99.90
34829;DHT22;21042;47.620;12.188;2023-03-14T01:00:47;11.30;99.90
34829;DHT22;21042;47.620;12.188;2023-03-14T01:03:14;11.40;99.90
34829;DHT22;21042;47.620;12.188;2023-03-14T01:05:41;11.50;99.90
34829;DHT22;21042;47.620;12.188;2023-03-14T01:08:08;11.50;99.90
34829;DHT22;21042;47.620;12.188;2023-03-14T01:10:38;11.60;99.90
34829;DHT22;21042;47.620;12.188;2023-03-14T01:13:06;11.70;99.90
34829;DHT22;21042;47.620;12.188;2023-03-14T01:15:36;11.70;99.90
34829;DHT22;21042;47.620;12.188;2023-03-14T01:18:04;11.70;99.90
34829;DHT22;21042;47.620;12.188;2023-03-14T01:20:30;11.70;99.90
34829;DHT22;21042;47.620;12.188;2023-03-14T01:22:57;11.50;99.90
34829;DHT22;21042;47.620;12.188;2023-03-14T01:25:24;11.30;99.90
34829;DHT22;21042;47.620;12.188;2023-03-14T01:27:51;11.00;99.90
34829;DHT22;21042;47.620;12.188;2023-03-14T01:30:18;10.90;99.90
34829;DHT22;21042;47.620;12.188;2023-03-14T01:32:45;10.80;99.90
34829;DHT22;21042;47.620;12.188;2023-03-14T01:35:12;10.80;99.90
34829;DHT22;21042;47.620;12.188;2023-03-14T01:37:39;10.90;99.90
34829;DHT22;21042;47.620;12.188;2023-03-14T01:40:12;11.00;99.90
34829;DHT22;21042;47.620;12.188;2023-03-14T01:42:54;11.00;99.90
34829;DHT22;21042;47.620;12.188;2023-03-14T01:48:31;11.20;99.90
34829;DHT22;21042;47.620;12.188;2023-03-14T01:50:59;11.30;99.90
34829;DHT22;21042;47.620;12.188;2023-03-14T01:53:27;11.30;99.90
34829;DHT22;21042;47.620;12.188;2023-03-14T01:55:55;11.40;99.90
34829;DHT22;21042;47.620;12.188;2023-03-14T01:58:27;11.30;99.90
34829;DHT22;21042;47.620;12.188;2023-03-14T02:00:56;11.30;99.90
34829;DHT22;21042;47.620;12.188;2023-03-14T02:03:24;11.30;99.90
34829;DHT22;21042;47.620;12.188;2023-03-14T02:05:53;11.30;99.90
34829;DHT22;21042;47.620;12.188;2023-03-14T02:08:23;11.30;99.90
34829;DHT22;21042;47.620;12.188;2023-03-14T02:10:55;11.30;99.90
34829;DHT22;21042;47.620;12.188;2023-03-14T02:13:40;11.30;99.90
34829;DHT22;21042;47.620;12.188;2023-03-14T02:16:25;11.20;99.90
34829;DHT22;21042;47.620;12.188;2023-03-14T02:19:10;11.20;99.90
34829;DHT22;21042;47.620;12.188;2023-03-14T02:21:58;11.30;99.90
34829;DHT22;21042;47.620;12.188;2023-03-14T02:27:14;11.40;99.90
34829;DHT22;21042;47.620;12.188;2023-03-14T02:29:54;11.40;99.90
34829;DHT22;21042;47.620;12.188;2023-03-14T02:32:24;11.40;99.90
34829;DHT22;21042;47.620;12.188;2023-03-14T02:34:56;11.40;99.90
34829;DHT22;21042;47.620;12.188;2023-03-14T02:37:37;11.40;99.90
34829;DHT22;21042;47.620;12.188;2023-03-14T02:40:05;11.40;99.90
34829;DHT22;21042;47.620;12.188;2023-03-14T02:42:34;11.40;99.90
34829;DHT22;21042;47.620;12.188;2023-03-14T02:50:38;11.30;99.90
34829;DHT22;21042;47.620;12.188;2023-03-14T02:53:05;11.30;99.90
34829;DHT22;21042;47.620;12.188;2023-03-14T02:55:32;11.20;99.90
34829;DHT22;21042;47.620;12.188;2023-03-14T02:58:04;11.20;99.90
34829;DHT22;21042;47.620;12.188;2023-03-14T03:00:31;11.00;99.90
34829;DHT22;21042;47.620;12.188;2023-03-14T03:02:57;10.90;99.90
34829;DHT22;21042;47.620;12.188;2023-03-14T03:05:24;10.90;99.90
34829;DHT22;21042;47.620;12.188;2023-03-14T03:07:51;10.80;99.90
34829;DHT22;21042;47.620;12.188;2023-03-14T03:10:18;10.60;99.90
34829;DHT22;21042;47.620;12.188;2023-03-14T03:12:45;10.70;99.90
34829;DHT22;21042;47.620;12.188;2023-03-14T03:15:12;10.60;99.90
34829;DHT22;21042;47.620;12.188;2023-03-14T03:17:39;10.40;99.90
34829;DHT22;21042;47.620;12.188;2023-03-14T03:20:06;10.20;99.90
34829;DHT22;21042;47.620;12.188;2023-03-14T03:22:36;10.10;99.90
34829;DHT22;21042;47.620;12.188;2023-03-14T03:25:04;9.90;99.90
34829;DHT22;21042;47.620;12.188;2023-03-14T03:27:33;9.80;99.90
34829;DHT22;21042;47.620;12.188;2023-03-14T03:30:01;9.70;99.90
34829;DHT22;21042;47.620;12.188;2023-03-14T03:32:31;9.60;99.90
34829;DHT22;21042;47.620;12.188;2023-03-14T03:34:58;9.60;99.90
34829;DHT22;21042;47.620;12.188;2023-03-14T03:37:25;9.50;99.90
34829;DHT22;21042;47.620;12.188;2023-03-14T03:39:52;9.40;99.90
34829;DHT22;21042;47.620;12.188;2023-03-14T03:42:19;9.40;99.90
34829;DHT22;21042;47.620;12.188;2023-03-14T03:44:45;9.30;99.90
34829;DHT22;21042;47.620;12.188;2023-03-14T03:47:14;9.20;99.90
34829;DHT22;21042;47.620;12.188;2023-03-14T03:49:40;9.20;99.90
34829;DHT22;21042;47.620;12.188;2023-03-14T03:52:09;9.10;99.90
34829;DHT22;21042;47.620;12.188;2023-03-14T03:54:36;9.00;99.90
34829;DHT22;21042;47.620;12.188;2023-03-14T03:57:03;9.00;99.90
34829;DHT22;21042;47.620;12.188;2023-03-14T03:59:30;9.00;99.90
34829;DHT22;21042;47.620;12.188;2023-03-14T04:04:55;8.90;99.90
34829;DHT22;21042;47.620;12.188;2023-03-14T04:07:22;8.90;99.90
34829;DHT22;21042;47.620;12.188;2023-03-14T04:09:49;8.80;99.90
34829;DHT22;21042;47.620;12.188;2023-03-14T04:12:45;8.80;99.90
34829;DHT22;21042;47.620;12.188;2023-03-14T04:15:18;8.80;99.90
34829;DHT22;21042;47.620;12.188;2023-03-14T04:17:47;8.70;99.90
34829;DHT22;21042;47.620;12.188;2023-03-14T04:20:15;8.70;99.90
34829;DHT22;21042;47.620;12.188;2023-03-14T04:22:42;8.70;99.90
34829;DHT22;21042;47.620;12.188;2023-03-14T04:25:10;8.70;99.90
34829;DHT22;21042;47.620;12.188;2023-03-14T04:27:42;8.70;99.90
34829;DHT22;21042;47.620;12.188;2023-03-14T04:30:17;8.70;99.90
34829;DHT22;21042;47.620;12.188;2023-03-14T04:32:51;8.70;99.90
34829;DHT22;21042;47.620;12.188;2023-03-14T04:35:20;8.60;99.90
34829;DHT22;21042;47.620;12.188;2023-03-14T04:37:48;8.60;99.90
34829;DHT22;21042;47.620;12.188;2023-03-14T04:40:16;8.60;99.90
34829;DHT22;21042;47.620;12.188;2023-03-14T04:42:45;8.60;99.90
34829;DHT22;21042;47.620;12.188;2023-03-14T04:45:12;8.50;99.90
34829;DHT22;21042;47.620;12.188;2023-03-14T04:47:41;8.50;99.90
34829;DHT22;21042;47.620;12.188;2023-03-14T04:50:11;8.40;99.90
34829;DHT22;21042;47.620;12.188;2023-03-14T04:52:38;8.40;99.90
34829;DHT22;21042;47.620;12.188;2023-03-14T04:55:05;8.30;99.90
34829;DHT22;21042;47.620;12.188;2023-03-14T04:57:32;8.10;99.90
34829;DHT22;21042;47.620;12.188;2023-03-14T04:59:58;8.10;99.90
34829;DHT22;21042;47.620;12.188;2023-03-14T05:02:44;8.10;99.90
34829;DHT22;21042;47.620;12.188;2023-03-14T05:05:29;8.10;99.90
34829;DHT22;21042;47.620;12.188;2023-03-14T05:08:14;8.10;99.90
34829;DHT22;21042;47.620;12.188;2023-03-14T05:11:02;8.10;99.90
34829;DHT22;21042;47.620;12.188;2023-03-14T05:13:49;8.00;99.90
34829;DHT22;21042;47.620;12.188;2023-03-14T05:16:32;8.10;99.90
34829;DHT22;21042;47.620;12.188;2023-03-14T05:19:22;8.00;99.90
34829;DHT22;21042;47.620;12.188;2023-03-14T05:22:08;8.10;99.90
34829;DHT22;21042;47.620;12.188;2023-03-14T05:24:57;8.10;99.90
34829;DHT22;21042;47.620;12.188;2023-03-14T05:27:43;8.10;99.90
34829;DHT22;21042;47.620;12.188;2023-03-14T05:30:46;8.10;99.90
34829;DHT22;21042;47.620;12.188;2023-03-14T05:33:42;8.10;99.90
34829;DHT22;21042;47.620;12.188;2023-03-14T05:36:34;8.10;99.90
34829;DHT22;21042;47.620;12.188;2023-03-14T05:39:20;8.10;99.90
34829;DHT22;21042;47.620;12.188;2023-03-14T05:42:05;8.00;99.90
34829;DHT22;21042;47.620;12.188;2023-03-14T05:44:51;8.00;99.90
34829;DHT22;21042;47.620;12.188;2023-03-14T05:47:45;8.00;99.90
34829;DHT22;21042;47.620;12.188;2023-03-14T05:50:30;8.10;99.90
34829;DHT22;21042;47.620;12.188;2023-03-14T05:53:15;8.10;99.90
34829;DHT22;21042;47.620;12.188;2023-03-14T05:56:12;8.10;99.90
34829;DHT22;21042;47.620;12.188;2023-03-14T05:58:55;8.00;99.90
34829;DHT22;21042;47.620;12.188;2023-03-14T06:01:34;8.00;99.90
34829;DHT22;21042;47.620;12.188;2023-03-14T06:04:15;8.00;99.90
34829;DHT22;21042;47.620;12.188;2023-03-14T06:06:46;8.00;99.90
34829;DHT22;21042;47.620;12.188;2023-03-14T06:09:14;7.90;99.90
34829;DHT22;21042;47.620;12.188;2023-03-14T06:11:42;8.00;99.90
34829;DHT22;21042;47.620;12.188;2023-03-14T06:14:10;8.00;99.90
34829;DHT22;21042;47.620;12.188;2023-03-14T06:16:40;8.00;99.90
34829;DHT22;21042;47.620;12.188;2023-03-14T06:19:08;8.00;99.90
34829;DHT22;21042;47.620;12.188;2023-03-14T06:21:36;8.00;99.90
34829;DHT22;21042;47.620;12.188;2023-03-14T06:24:03;8.00;99.90
34829;DHT22;21042;47.620;12.188;2023-03-14T06:26:35;8.00;99.90
34829;DHT22;21042;47.620;12.188;2023-03-14T06:29:01;8.10;99.90
34829;DHT22;21042;47.620;12.188;2023-03-14T06:31:48;8.00;99.90
34829;DHT22;21042;47.620;12.188;2023-03-14T06:34:19;8.00;99.90
34829;DHT22;21042;47.620;12.188;2023-03-14T06:36:46;8.00;99.90
34829;DHT22;21042;47.620;12.188;2023-03-14T06:39:13;8.00;99.90
34829;DHT22;21042;47.620;12.188;2023-03-14T06:41:45;8.00;99.90
34829;DHT22;21042;47.620;12.188;2023-03-14T06:44:11;8.00;99.90
34829;DHT22;21042;47.620;12.188;2023-03-14T06:46:38;8.00;99.90
34829;DHT22;21042;47.620;12.188;2023-03-14T06:49:05;8.10;99.90
34829;DHT22;21042;47.620;12.188;2023-03-14T06:51:33;8.10;99.90
34829;DHT22;21042;47.620;12.188;2023-03-14T06:54:02;8.10;99.90
34829;DHT22;21042;47.620;12.188;2023-03-14T06:56:30;8.10;99.90
34829;DHT22;21042;47.620;12.188;2023-03-14T06:58:57;8.10;99.90
34829;DHT22;21042;47.620;12.188;2023-03-14T07:01:28;8.10;99.90
34829;DHT22;21042;47.620;12.188;2023-03-14T07:04:04;8.10;99.90
34829;DHT22;21042;47.620;12.188;2023-03-14T07:06:33;8.00;99.90
34829;DHT22;21042;47.620;12.188;2023-03-14T07:09:00;8.10;99.90
34829;DHT22;21042;47.620;12.188;2023-03-14T07:11:29;8.10;99.90
34829;DHT22;21042;47.620;12.188;2023-03-14T07:13:56;8.00;99.90
34829;DHT22;21042;47.620;12.188;2023-03-14T07:16:24;8.00;99.90
34829;DHT22;21042;47.620;12.188;2023-03-14T07:18:51;8.00;99.90
34829;DHT22;21042;47.620;12.188;2023-03-14T07:21:18;8.00;99.90
34829;DHT22;21042;47.620;12.188;2023-03-14T07:23:45;8.00;99.90
34829;DHT22;21042;47.620;12.188;2023-03-14T07:26:13;8.00;99.90
34829;DHT22;21042;47.620;12.188;2023-03-14T07:28:45;8.00;99.90
34829;DHT22;21042;47.620;12.188;2023-03-14T07:31:15;8.00;99.90
34829;DHT22;21042;47.620;12.188;2023-03-14T07:33:42;7.90;99.90
34829;DHT22;21042;47.620;12.188;2023-03-14T07:36:09;7.80;99.90
34829;DHT22;21042;47.620;12.188;2023-03-14T07:38:38;7.80;99.90
34829;DHT22;21042;47.620;12.188;2023-03-14T07:41:15;7.80;99.90
34829;DHT22;21042;47.620;12.188;2023-03-14T07:44:04;7.70;99.90
34829;DHT22;21042;47.620;12.188;2023-03-14T07:46:31;7.80;99.90
34829;DHT22;21042;47.620;12.188;2023-03-14T07:48:58;7.70;99.90
34829;DHT22;21042;47.620;12.188;2023-03-14T07:51:25;7.70;99.90
34829;DHT22;21042;47.620;12.188;2023-03-14T07:53:51;7.60;99.90
34829;DHT22;21042;47.620;12.188;2023-03-14T07:56:18;7.70;99.90
34829;DHT22;21042;47.620;12.188;2023-03-14T07:58:45;7.60;99.90
34829;DHT22;21042;47.620;12.188;2023-03-14T08:01:11;7.70;99.90
34829;DHT22;21042;47.620;12.188;2023-03-14T08:03:38;7.70;99.90
34829;DHT22;21042;47.620;12.188;2023-03-14T08:06:05;7.70;99.90
34829;DHT22;21042;47.620;12.188;2023-03-14T08:08:32;7.70;99.90
34829;DHT22;21042;47.620;12.188;2023-03-14T08:11:05;7.70;99.90
34829;DHT22;21042;47.620;12.188;2023-03-14T08:13:36;7.80;99.90
34829;DHT22;21042;47.620;12.188;2023-03-14T08:16:03;7.70;99.90
34829;DHT22;21042;47.620;12.188;2023-03-14T08:18:30;7.70;99.90
34829;DHT22;21042;47.620;12.188;2023-03-14T08:20:57;7.80;99.90
34829;DHT22;21042;47.620;12.188;2023-03-14T08:23:24;7.80;99.90
34829;DHT22;21042;47.620;12.188;2023-03-14T08:25:51;7.80;99.90
34829;DHT22;21042;47.620;12.188;2023-03-14T08:28:18;7.90;99.90
34829;DHT22;21042;47.620;12.188;2023-03-14T08:30:45;7.90;99.90
34829;DHT22;21042;47.620;12.188;2023-03-14T08:33:13;7.80;99.90
34829;DHT22;21042;47.620;12.188;2023-03-14T08:35:40;7.80;99.90
34829;DHT22;21042;47.620;12.188;2023-03-14T08:38:07;7.70;99.90
34829;DHT22;21042;47.620;12.188;2023-03-14T08:40:33;7.70;99.90
34829;DHT22;21042;47.620;12.188;2023-03-14T08:43:00;7.70;99.90
34829;DHT22;21042;47.620;12.188;2023-03-14T08:45:27;7.70;99.90
34829;DHT22;21042;47.620;12.188;2023-03-14T08:47:53;7.70;99.90
34829;DHT22;21042;47.620;12.188;2023-03-14T08:50:20;7.70;99.90
34829;DHT22;21042;47.620;12.188;2023-03-14T08:52:47;7.70;99.90
34829;DHT22;21042;47.620;12.188;2023-03-14T08:55:14;7.80;99.90
34829;DHT22;21042;47.620;12.188;2023-03-14T08:57:41;7.80;99.90
34829;DHT22;21042;47.620;12.188;2023-03-14T09:00:08;7.80;99.90
34829;DHT22;21042;47.620;12.188;2023-03-14T09:02:38;7.80;99.90
34829;DHT22;21042;47.620;12.188;2023-03-14T09:05:06;7.80;99.90
34829;DHT22;21042;47.620;12.188;2023-03-14T09:07:33;7.80;99.90
34829;DHT22;21042;47.620;12.188;2023-03-14T09:09:59;7.80;99.90
34829;DHT22;21042;47.620;12.188;2023-03-14T09:12:26;7.80;99.90
34829;DHT22;21042;47.620;12.188;2023-03-14T09:14:53;7.80;99.90
34829;DHT22;21042;47.620;12.188;2023-03-14T09:17:20;7.80;99.90
34829;DHT22;21042;47.620;12.188;2023-03-14T09:19:47;7.80;99.90
34829;DHT22;21042;47.620;12.188;2023-03-14T09:22:13;7.70;99.90
34829;DHT22;21042;47.620;12.188;2023-03-14T09:24:41;7.70;99.90
34829;DHT22;21042;47.620;12.188;2023-03-14T09:27:07;7.60;99.90
34829;DHT22;21042;47.620;12.188;2023-03-14T09:29:34;7.50;99.90
34829;DHT22;21042;47.620;12.188;2023-03-14T09:32:01;7.30;99.90
34829;DHT22;21042;47.620;12.188;2023-03-14T09:34:28;7.10;99.90
34829;DHT22;21042;47.620;12.188;2023-03-14T09:36:54;7.00;99.90
34829;DHT22;21042;47.620;12.188;2023-03-14T09:39:21;7.00;99.90
34829;DHT22;21042;47.620;12.188;2023-03-14T09:41:50;7.00;99.90
34829;DHT22;21042;47.620;12.188;2023-03-14T09:44:36;7.00;99.90
34829;DHT22;21042;47.620;12.188;2023-03-14T09:47:10;7.00;99.90
34829;DHT22;21042;47.620;12.188;2023-03-14T09:49:40;7.00;99.90
34829;DHT22;21042;47.620;12.188;2023-03-14T09:52:31;6.80;99.90
34829;DHT22;21042;47.620;12.188;2023-03-14T09:55:10;6.70;99.90
34829;DHT22;21042;47.620;12.188;2023-03-14T09:57:39;6.60;99.90
34829;DHT22;21042;47.620;12.188;2023-03-14T10:00:22;6.70;99.90
34829;DHT22;21042;47.620;12.188;2023-03-14T10:03:00;6.60;99.90
34829;DHT22;21042;47.620;12.188;2023-03-14T10:05:28;6.50;99.90
34829;DHT22;21042;47.620;12.188;2023-03-14T10:07:56;6.50;99.90
34829;DHT22;21042;47.620;12.188;2023-03-14T10:10:24;6.40;99.90
34829;DHT22;21042;47.620;12.188;2023-03-14T10:12:59;6.50;99.90
34829;DHT22;21042;47.620;12.188;2023-03-14T10:15:33;6.50;99.90
34829;DHT22;21042;47.620;12.188;2023-03-14T10:18:02;6.60;99.90
34829;DHT22;21042;47.620;12.188;2023-03-14T10:20:38;6.60;99.90
34829;DHT22;21042;47.620;12.188;2023-03-14T10:23:19;6.60;99.90
34829;DHT22;21042;47.620;12.188;2023-03-14T10:26:14;6.60;99.90
34829;DHT22;21042;47.620;12.188;2023-03-14T10:28:51;6.60;99.90
34829;DHT22;21042;47.620;12.188;2023-03-14T10:31:18;6.80;99.90
34829;DHT22;21042;47.620;12.188;2023-03-14T10:34:02;6.80;99.90
34829;DHT22;21042;47.620;12.188;2023-03-14T10:36:31;6.90;99.90
34829;DHT22;21042;47.620;12.188;2023-03-14T10:39:21;6.90;99.90
34829;DHT22;21042;47.620;12.188;2023-03-14T10:41:51;7.00;99.90
34829;DHT22;21042;47.620;12.188;2023-03-14T10:44:22;7.00;99.90
34829;DHT22;21042;47.620;12.188;2023-03-14T10:47:00;7.00;99.90
34829;DHT22;21042;47.620;12.188;2023-03-14T10:49:35;6.90;99.90
34829;DHT22;21042;47.620;12.188;2023-03-14T10:52:26;6.90;99.90
34829;DHT22;21042;47.620;12.188;2023-03-14T10:55:13;6.80;99.90
34829;DHT22;21042;47.620;12.188;2023-03-14T10:57:41;6.90;99.90
34829;DHT22;21042;47.620;12.188;2023-03-14T11:00:15;6.90;99.90
34829;DHT22;21042;47.620;12.188;2023-03-14T11:03:04;6.90;99.90
34829;DHT22;21042;47.620;12.188;2023-03-14T11:05:48;6.90;99.90
34829;DHT22;21042;47.620;12.188;2023-03-14T11:08:38;7.00;99.90
34829;DHT22;21042;47.620;12.188;2023-03-14T11:11:22;7.10;99.90
34829;DHT22;21042;47.620;12.188;2023-03-14T11:22:21;7.40;99.90
34829;DHT22;21042;47.620;12.188;2023-03-14T11:25:00;7.60;99.90
34829;DHT22;21042;47.620;12.188;2023-03-14T11:27:44;7.90;99.90
34829;DHT22;21042;47.620;12.188;2023-03-14T11:30:33;8.10;99.90
34829;DHT22;21042;47.620;12.188;2023-03-14T11:38:30;8.70;99.90
34829;DHT22;21042;47.620;12.188;2023-03-14T11:40:58;8.90;99.90
34829;DHT22;21042;47.620;12.188;2023-03-14T11:43:33;8.80;99.90
34829;DHT22;21042;47.620;12.188;2023-03-14T11:46:16;8.80;99.90
34829;DHT22;21042;47.620;12.188;2023-03-14T11:49:58;9.10;99.90
34829;DHT22;21042;47.620;12.188;2023-03-14T11:52:01;9.50;99.90
34829;DHT22;21042;47.620;12.188;2023-03-14T11:54:48;9.70;99.90
34829;DHT22;21042;47.620;12.188;2023-03-14T11:57:21;9.90;99.90
34829;DHT22;21042;47.620;12.188;2023-03-14T12:00:14;9.80;99.90
34829;DHT22;21042;47.620;12.188;2023-03-14T12:02:56;9.70;99.90
34829;DHT22;21042;47.620;12.188;2023-03-14T12:05:52;9.90;99.90
34829;DHT22;21042;47.620;12.188;2023-03-14T12:08:42;9.90;99.90
34829;DHT22;21042;47.620;12.188;2023-03-14T12:14:01;9.70;99.90
34829;DHT22;21042;47.620;12.188;2023-03-14T12:16:37;9.90;99.90
34829;DHT22;21042;47.620;12.188;2023-03-14T12:21:53;10.20;99.90
34829;DHT22;21042;47.620;12.188;2023-03-14T12:24:29;10.20;99.90
34829;DHT22;21042;47.620;12.188;2023-03-14T12:27:00;10.40;99.90
34829;DHT22;21042;47.620;12.188;2023-03-14T12:29:28;10.40;99.90
34829;DHT22;21042;47.620;12.188;2023-03-14T12:32:12;10.50;99.90
34829;DHT22;21042;47.620;12.188;2023-03-14T12:34:46;10.40;99.90
34829;DHT22;21042;47.620;12.188;2023-03-14T12:37:22;10.30;99.90
34829;DHT22;21042;47.620;12.188;2023-03-14T12:40:17;10.50;99.90
34829;DHT22;21042;47.620;12.188;2023-03-14T12:42:56;10.60;99.90
34829;DHT22;21042;47.620;12.188;2023-03-14T12:45:25;10.70;99.90
34829;DHT22;21042;47.620;12.188;2023-03-14T12:48:20;10.70;99.90
34829;DHT22;21042;47.620;12.188;2023-03-14T12:50:55;10.70;99.90
34829;DHT22;21042;47.620;12.188;2023-03-14T12:56:19;10.70;99.90
34829;DHT22;21042;47.620;12.188;2023-03-14T13:01:36;10.70;99.90
34829;DHT22;21042;47.620;12.188;2023-03-14T13:04:08;10.70;99.90
34829;DHT22;21042;47.620;12.188;2023-03-14T13:06:57;10.60;99.90
34829;DHT22;21042;47.620;12.188;2023-03-14T13:12:11;10.80;99.90
34829;DHT22;21042;47.620;12.188;2023-03-14T13:14:44;10.90;99.90
34829;DHT22;21042;47.620;12.188;2023-03-14T13:17:13;11.10;99.90
34829;DHT22;21042;47.620;12.188;2023-03-14T13:20:05;11.00;99.90
34829;DHT22;21042;47.620;12.188;2023-03-14T13:22:36;10.70;99.90
34829;DHT22;21042;47.620;12.188;2023-03-14T13:25:10;10.50;99.90
34829;DHT22;21042;47.620;12.188;2023-03-14T13:27:37;10.30;99.90
34829;DHT22;21042;47.620;12.188;2023-03-14T13:30:25;10.20;99.90
34829;DHT22;21042;47.620;12.188;2023-03-14T13:32:53;9.90;99.90
34829;DHT22;21042;47.620;12.188;2023-03-14T13:35:24;9.80;99.90
34829;DHT22;21042;47.620;12.188;2023-03-14T13:37:59;9.70;99.90
34829;DHT22;21042;47.620;12.188;2023-03-14T13:40:37;9.80;99.90
34829;DHT22;21042;47.620;12.188;2023-03-14T13:43:23;9.70;99.90
34829;DHT22;21042;47.620;12.188;2023-03-14T13:46:06;9.70;99.90
34829;DHT22;21042;47.620;12.188;2023-03-14T13:48:49;9.80;99.90
34829;DHT22;21042;47.620;12.188;2023-03-14T13:51:20;10.00;99.90
34829;DHT22;21042;47.620;12.188;2023-03-14T13:53:52;10.10;99.90
34829;DHT22;21042;47.620;12.188;2023-03-14T13:56:25;10.10;99.90
34829;DHT22;21042;47.620;12.188;2023-03-14T13:58:52;10.10;99.90
34829;DHT22;21042;47.620;12.188;2023-03-14T14:01:30;10.10;99.90
34829;DHT22;21042;47.620;12.188;2023-03-14T14:04:05;10.20;99.90
34829;DHT22;21042;47.620;12.188;2023-03-14T14:06:37;10.10;99.90
34829;DHT22;21042;47.620;12.188;2023-03-14T14:09:14;10.00;99.90
34829;DHT22;21042;47.620;12.188;2023-03-14T14:14:55;10.20;99.90
34829;DHT22;21042;47.620;12.188;2023-03-14T14:17:31;10.30;99.90
34829;DHT22;21042;47.620;12.188;2023-03-14T14:20:01;10.30;99.90
34829;DHT22;21042;47.620;12.188;2023-03-14T14:22:30;10.30;99.90
34829;DHT22;21042;47.620;12.188;2023-03-14T14:24:57;10.30;99.90
34829;DHT22;21042;47.620;12.188;2023-03-14T14:27:36;10.10;99.90
34829;DHT22;21042;47.620;12.188;2023-03-14T14:30:06;9.70;99.90
34829;DHT22;21042;47.620;12.188;2023-03-14T14:32:51;9.50;99.90
34829;DHT22;21042;47.620;12.188;2023-03-14T14:35:35;9.30;99.90
34829;DHT22;21042;47.620;12.188;2023-03-14T14:38:02;9.30;99.90
34829;DHT22;21042;47.620;12.188;2023-03-14T14:40:44;9.20;99.90
34829;DHT22;21042;47.620;12.188;2023-03-14T14:43:17;9.20;99.90
34829;DHT22;21042;47.620;12.188;2023-03-14T14:45:46;9.10;99.90
34829;DHT22;21042;47.620;12.188;2023-03-14T14:48:14;9.00;99.90
34829;DHT22;21042;47.620;12.188;2023-03-14T14:55:55;9.00;99.90
34829;DHT22;21042;47.620;12.188;2023-03-14T14:58:39;8.90;99.90
34829;DHT22;21042;47.620;12.188;2023-03-14T15:01:20;8.90;99.90
34829;DHT22;21042;47.620;12.188;2023-03-14T15:03:51;8.80;99.90
34829;DHT22;21042;47.620;12.188;2023-03-14T15:06:18;9.00;99.90
34829;DHT22;21042;47.620;12.188;2023-03-14T15:08:47;9.00;99.90
34829;DHT22;21042;47.620;12.188;2023-03-14T15:11:20;9.00;99.90
34829;DHT22;21042;47.620;12.188;2023-03-14T15:13:52;9.00;99.90
34829;DHT22;21042;47.620;12.188;2023-03-14T15:16:22;8.90;99.90
34829;DHT22;21042;47.620;12.188;2023-03-14T15:19:03;8.80;99.90
34829;DHT22;21042;47.620;12.188;2023-03-14T15:21:50;8.70;99.90
34829;DHT22;21042;47.620;12.188;2023-03-14T15:24:17;8.60;99.90
34829;DHT22;21042;47.620;12.188;2023-03-14T15:26:43;8.60;99.90
34829;DHT22;21042;47.620;12.188;2023-03-14T15:29:11;8.50;99.90
34829;DHT22;21042;47.620;12.188;2023-03-14T15:31:39;8.50;99.90
34829;DHT22;21042;47.620;12.188;2023-03-14T15:34:06;8.50;99.90
34829;DHT22;21042;47.620;12.188;2023-03-14T15:36:34;8.40;99.90
34829;DHT22;21042;47.620;12.188;2023-03-14T15:39:03;8.40;99.90
34829;DHT22;21042;47.620;12.188;2023-03-14T15:41:30;8.40;99.90
34829;DHT22;21042;47.620;12.188;2023-03-14T15:43:56;8.40;99.90
34829;DHT22;21042;47.620;12.188;2023-03-14T15:46:23;8.30;99.90
34829;DHT22;21042;47.620;12.188;2023-03-14T15:48:51;8.40;99.90
34829;DHT22;21042;47.620;12.188;2023-03-14T15:51:18;8.60;99.90
34829;DHT22;21042;47.620;12.188;2023-03-14T15:53:45;8.80;99.90
34829;DHT22;21042;47.620;12.188;2023-03-14T15:56:15;9.10;99.90
34829;DHT22;21042;47.620;12.188;2023-03-14T15:58:42;9.30;99.90
34829;DHT22;21042;47.620;12.188;2023-03-14T16:01:14;9.70;99.90
34829;DHT22;21042;47.620;12.188;2023-03-14T16:03:43;10.00;99.90
34829;DHT22;21042;47.620;12.188;2023-03-14T16:06:12;10.20;99.90
34829;DHT22;21042;47.620;12.188;2023-03-14T16:08:39;10.30;99.90
34829;DHT22;21042;47.620;12.188;2023-03-14T16:11:06;10.30;99.90
34829;DHT22;21042;47.620;12.188;2023-03-14T16:13:33;10.30;99.90
34829;DHT22;21042;47.620;12.188;2023-03-14T16:16:01;9.90;99.90
34829;DHT22;21042;47.620;12.188;2023-03-14T16:18:30;9.80;99.90
34829;DHT22;21042;47.620;12.188;2023-03-14T16:20:59;9.50;99.90
34829;DHT22;21042;47.620;12.188;2023-03-14T16:23:27;9.40;99.90
34829;DHT22;21042;47.620;12.188;2023-03-14T16:25:55;9.30;99.90
34829;DHT22;21042;47.620;12.188;2023-03-14T16:28:23;9.10;99.90
34829;DHT22;21042;47.620;12.188;2023-03-14T16:30:50;9.00;99.90
34829;DHT22;21042;47.620;12.188;2023-03-14T16:33:17;9.00;99.90
34829;DHT22;21042;47.620;12.188;2023-03-14T16:35:55;8.90;99.90
34829;DHT22;21042;47.620;12.188;2023-03-14T16:38:23;8.80;99.90
34829;DHT22;21042;47.620;12.188;2023-03-14T16:41:05;8.70;99.90
34829;DHT22;21042;47.620;12.188;2023-03-14T16:43:32;8.60;99.90
34829;DHT22;21042;47.620;12.188;2023-03-14T16:45:59;8.40;99.90
34829;DHT22;21042;47.620;12.188;2023-03-14T16:48:26;8.20;99.90